Report METAR

 

LIBV - Gioia Del Colle, Italy
Distance from station: SSE 15km
Dati ricevuti: 30/11/2020 14:55
Molto nuvoloso
Molto nuvoloso
 Vento da NNO
Vento: NNO 20 km/h
Temperatura: 12°C
P.to Rugiada: 6°C
Umidità: 67%
Pressione: 1017 hPa
Nuvole: Molto nuvoloso
Visibility: 10 km
Cloud details: Molto nuvoloso 762 m
2020/11/30 13:55 LIBV 301355Z 34011KT 9999 BKN025 12/06 Q1017 RMK BKN VIS MIN 9999 WIND THR32 35011KT WIND THR14 34011KT BLU
LIBD - Bari/Palese Macc, Italy
Distance from station: NNO 26km
Dati ricevuti: 30/11/2020 15:20
Nubi sparse
Nubi sparse
 Vento da NNO
Vento: NNO 19 km/h
Temperatura: 13°C
P.to Rugiada: 5°C
Umidità: 59%
Pressione: 1019 hPa
Nuvole: Nubi sparse
Visibility: 10 km
Cloud details: Nubi sparse 914 m
2020/11/30 14:20 LIBD 301420Z 34010KT 300V010 9999 FEW030 13/05 Q1019
LIBH - Marina Di Ginosa, Italy
Distance from station: S 53km
Dati ricevuti: 30/11/2020 14:55
Molto nuvoloso
Molto nuvoloso
 Vento da NO
Vento: NO 17 km/h
Temperatura: 15°C
P.to Rugiada: 11°C
Umidità: 77%
Pressione: 1016 hPa
Nuvole: Molto nuvoloso
Visibility: 10 km
Cloud details: Parz. nuvoloso 610 m
Molto nuvoloso 914 m
2020/11/30 13:55 LIBH 301355Z 32009KT 9999 SCT020 BKN030 15/11 Q1016 RMK BKN QUK 1 QUL 0 VIS MAR 20 KM VIS MIN 9999
 
LIBG - Grottaglie(Civ/A, Italy
Distance from station: SE 61km
Dati ricevuti: 30/11/2020 14:50
Sereno
Sereno
 Vento da NNO
Vento: NNO 17 km/h
Temperatura: 14°C
P.to Rugiada: 5°C
Umidità: 55%
Pressione: 1018 hPa
Riassunto: Sereno
Visibility: superiore a 10 km
2020/11/30 13:50 LIBG 301350Z 33009KT 310V020 CAVOK 14/05 Q1018
LIBR - Brindisi/Casale, Italy
Distance from station: ESE 96km
Dati ricevuti: 30/11/2020 15:20
Nubi sparse
Nubi sparse
 Vento da N
Vento: N 28 km/h
Temperatura: 14°C
P.to Rugiada: 8°C
Umidità: 67%
Pressione: 1018 hPa
Nuvole: Nubi sparse
Visibility: 10 km
Cloud details: Nubi sparse 914 m
2020/11/30 14:20 LIBR 301420Z 35015KT 9999 FEW030 14/08 Q1018
LIBA - Amendola (it-Afb, Italy
Distance from station: NO 118km
Dati ricevuti: 30/11/2020 14:55
Nubi sparse
Nubi sparse
 Vento da NO
Vento: NO 28 km/h
Temperatura: 13°C
P.to Rugiada: 6°C
Umidità: 63%
Pressione: 1020 hPa
Nuvole: Nubi sparse
Visibility: 10 km
Cloud details: Nubi sparse 762 m
2020/11/30 13:55 LIBA 301355Z 31015KT 9999 FEW025 13/06 Q1020 RMK FEW VIS MIN 9999 WIND THR11 31012KT WIND THR29 /////KT BLU
 
LIBF - Foggia/Gino Lisa, Italy
Distance from station: ONO 126km
Dati ricevuti: 30/11/2020 14:50
Parz. nuvoloso
Parz. nuvoloso
 Vento da NNO
Vento: NNO 33 km/h
Temperatura: 12°C
P.to Rugiada: 6°C
Umidità: 67%
Pressione: 1021 hPa
Nuvole: Parz. nuvoloso
Visibility: 10 km
Cloud details: Parz. nuvoloso 914 m
2020/11/30 13:50 LIBF 301350Z 33018KT 9999 SCT030 12/06 Q1021
LIBN - Lecce (it-Afb), Italy
Distance from station: SE 132km
Dati ricevuti: 30/11/2020 14:55
Parz. nuvoloso
Parz. nuvoloso
 Vento da N
Vento: N 24 km/h
Temperatura: 14°C
P.to Rugiada: 10°C
Umidità: 77%
Pressione: 1017 hPa
Nuvole: Parz. nuvoloso
Visibility: 10 km
Cloud details: Parz. nuvoloso 762 m
Parz. nuvoloso 1067 m
2020/11/30 13:55 LIBN 301355Z 35013KT 9999 SCT025 SCT035 14/10 Q1017 RMK BKN VIS MIN 9999 WIND THR14 35012KT WIND THR32 35015KT BLU